createdAt,value
2022-08-25T00:00:11.624Z,25.6900
2022-08-25T00:01:13.851Z,25.6800
2022-08-25T00:02:16.121Z,25.6800
2022-08-25T00:03:18.343Z,25.6900
2022-08-25T00:04:20.593Z,25.6900
2022-08-25T00:05:22.934Z,25.6900
2022-08-25T00:06:22.912Z,25.6900
2022-08-25T00:07:25.159Z,25.7000
2022-08-25T00:08:27.412Z,25.6900
2022-08-25T00:09:29.665Z,25.6900
2022-08-25T00:10:31.911Z,25.6800
2022-08-25T00:11:34.104Z,25.6700
2022-08-25T00:12:36.344Z,25.6700
2022-08-25T00:13:38.579Z,25.6700
2022-08-25T00:14:40.827Z,25.6600
2022-08-25T00:15:43.188Z,25.6600
2022-08-25T00:16:45.316Z,25.6700
2022-08-25T00:17:47.572Z,25.6700
2022-08-25T00:18:49.795Z,25.6700
2022-08-25T00:19:51.986Z,25.6700
2022-08-25T00:20:54.270Z,25.6700
2022-08-25T00:21:56.471Z,25.6700
2022-08-25T00:22:58.718Z,25.6700
2022-08-25T00:24:00.969Z,25.6700
2022-08-25T00:25:03.206Z,25.6700
2022-08-25T00:26:05.485Z,25.6600
2022-08-25T00:27:07.700Z,25.6600
2022-08-25T00:28:10.207Z,25.6700
2022-08-25T00:29:12.192Z,25.6600
2022-08-25T00:30:14.434Z,25.6600
2022-08-25T00:31:16.833Z,25.6600
2022-08-25T00:32:18.886Z,25.6600
2022-08-25T00:33:21.129Z,25.6600
2022-08-25T00:34:23.350Z,25.6500
2022-08-25T00:35:25.529Z,25.6400
2022-08-25T00:36:25.642Z,25.6300
2022-08-25T00:37:27.860Z,25.6400
2022-08-25T00:38:30.051Z,25.6400
2022-08-25T00:39:32.272Z,25.6400
2022-08-25T00:40:34.409Z,25.6400
2022-08-25T00:41:36.575Z,25.6500
2022-08-25T00:42:38.701Z,25.6600
2022-08-25T00:43:40.863Z,25.6600
2022-08-25T00:44:43.004Z,25.6600
2022-08-25T00:45:45.139Z,25.6600
2022-08-25T00:46:47.313Z,25.6500
2022-08-25T00:47:49.446Z,25.6600
2022-08-25T00:48:51.622Z,25.6500
2022-08-25T00:49:53.831Z,25.6500
2022-08-25T00:50:56.043Z,25.6400
2022-08-25T00:51:58.280Z,25.6400
2022-08-25T00:53:00.420Z,25.6500
2022-08-25T00:54:02.605Z,25.6600
2022-08-25T00:55:07.780Z,25.6500
2022-08-25T00:56:07.046Z,25.6400
2022-08-25T00:57:09.328Z,25.6400
2022-08-25T00:58:11.527Z,25.6400
2022-08-25T00:59:13.771Z,25.6500
2022-08-25T01:00:15.988Z,25.6400
2022-08-25T01:01:18.362Z,25.6400
2022-08-25T01:02:18.388Z,25.6400
2022-08-25T01:03:20.548Z,25.6400
2022-08-25T01:04:22.777Z,25.6300
2022-08-25T01:05:25.016Z,25.6300
2022-08-25T01:06:27.257Z,25.6300
2022-08-25T01:07:29.517Z,25.6300
2022-08-25T01:08:32.084Z,25.6300
2022-08-25T01:09:33.951Z,25.6300
2022-08-25T01:10:36.197Z,25.6500
2022-08-25T01:11:38.432Z,25.6500
2022-08-25T01:12:40.667Z,25.6400
2022-08-25T01:13:42.839Z,25.5900
2022-08-25T01:14:45.035Z,25.5600
2022-08-25T01:15:45.158Z,25.5200
2022-08-25T01:16:51.197Z,25.4700
2022-08-25T01:17:49.534Z,25.4200
2022-08-25T01:18:51.722Z,25.4000
2022-08-25T01:19:53.936Z,25.3800
2022-08-25T01:20:54.001Z,25.3500
2022-08-25T01:21:56.215Z,25.3100
2022-08-25T01:22:58.468Z,25.2600
2022-08-25T01:24:00.626Z,25.2100
2022-08-25T01:25:02.821Z,25.1800
2022-08-25T01:26:05.057Z,25.1400
2022-08-25T01:27:07.270Z,25.1200
2022-08-25T01:28:09.519Z,25.1000
2022-08-25T01:29:11.697Z,25.1000
2022-08-25T01:30:13.884Z,25.1000
2022-08-25T01:31:23.531Z,25.0800
2022-08-25T01:32:18.397Z,25.0600
2022-08-25T01:34:16.430Z,25.1100
2022-08-25T01:35:18.546Z,25.1700
2022-08-25T01:36:20.712Z,25.1800
2022-08-25T01:37:22.897Z,25.1600
2022-08-25T01:38:25.088Z,25.1600
2022-08-25T01:39:27.321Z,25.1700
2022-08-25T01:40:29.519Z,25.1800
2022-08-25T01:41:31.680Z,25.2100
2022-08-25T01:42:33.813Z,25.2100
2022-08-25T01:43:35.929Z,25.1900
2022-08-25T01:44:38.081Z,25.1600
2022-08-25T01:45:40.204Z,25.1700
2022-08-25T01:46:42.360Z,25.1600
2022-08-25T01:47:44.538Z,25.1600
2022-08-25T01:48:46.691Z,25.1800
2022-08-25T01:49:48.885Z,25.1700
2022-08-25T01:50:51.014Z,25.1600
2022-08-25T01:51:53.184Z,25.1600
2022-08-25T01:52:55.347Z,25.1300
2022-08-25T01:53:57.493Z,25.1000
2022-08-25T01:54:59.705Z,25.0900
2022-08-25T01:56:01.949Z,25.1000
2022-08-25T01:57:02.015Z,25.0800
2022-08-25T01:58:04.539Z,25.0500
2022-08-25T01:59:06.516Z,25.0200
2022-08-25T02:00:08.744Z,25.0000
2022-08-25T02:01:10.989Z,24.9900
2022-08-25T02:02:13.197Z,24.9600
2022-08-25T02:03:15.797Z,24.9500
2022-08-25T02:04:17.563Z,24.9300
2022-08-25T02:05:23.344Z,24.9200
2022-08-25T02:06:21.896Z,24.9000
2022-08-25T02:07:24.116Z,24.8800
2022-08-25T02:08:26.341Z,24.9100
2022-08-25T02:09:28.572Z,24.8900
2022-08-25T02:10:30.866Z,24.8900
2022-08-25T02:11:32.996Z,24.9200
2022-08-25T02:12:35.219Z,24.9200
2022-08-25T02:13:37.436Z,24.9300
2022-08-25T02:14:37.524Z,24.9000
2022-08-25T02:15:39.822Z,24.8800
2022-08-25T02:16:42.058Z,24.8600
2022-08-25T02:17:44.205Z,24.8700
2022-08-25T02:18:46.433Z,24.8600
2022-08-25T02:19:48.643Z,24.8400
2022-08-25T02:20:50.878Z,24.8700
2022-08-25T02:21:53.101Z,24.8600
2022-08-25T02:22:57.095Z,24.8600
2022-08-25T02:23:57.571Z,24.8300
2022-08-25T02:24:59.811Z,24.8300
2022-08-25T02:26:02.099Z,24.8200
2022-08-25T02:27:02.136Z,24.8400
2022-08-25T02:28:04.547Z,24.8100
2022-08-25T02:29:06.551Z,24.7800
2022-08-25T02:30:08.783Z,24.7900
2022-08-25T02:31:11.106Z,24.7900
2022-08-25T02:32:13.250Z,24.8000
2022-08-25T02:33:15.487Z,24.8000
2022-08-25T02:34:17.758Z,24.8100
2022-08-25T02:35:19.983Z,24.8000
2022-08-25T02:36:22.282Z,24.7900
2022-08-25T02:37:24.512Z,24.8000
2022-08-25T02:38:24.589Z,24.8000
2022-08-25T02:39:26.880Z,24.7600
2022-08-25T02:40:29.179Z,24.7600
2022-08-25T02:41:31.798Z,24.7400
2022-08-25T02:42:31.506Z,24.7000
2022-08-25T02:43:33.773Z,24.7200
2022-08-25T02:44:36.025Z,24.7100
2022-08-25T02:45:38.426Z,24.6500
2022-08-25T02:46:38.493Z,24.6200
2022-08-25T02:47:40.767Z,24.6500
2022-08-25T02:48:43.067Z,24.6700
2022-08-25T02:49:45.328Z,24.6600
2022-08-25T02:50:47.580Z,24.6400
2022-08-25T02:51:49.876Z,24.6300
2022-08-25T02:52:52.128Z,24.6200
2022-08-25T02:53:52.271Z,24.6500
2022-08-25T02:54:54.565Z,24.6500
2022-08-25T02:55:56.856Z,24.6100
2022-08-25T02:56:59.127Z,24.5900
2022-08-25T02:58:01.473Z,24.5600
2022-08-25T02:59:03.586Z,24.5600
2022-08-25T03:00:05.872Z,24.5100
2022-08-25T03:01:08.259Z,24.4900
2022-08-25T03:02:08.300Z,24.4700
2022-08-25T03:03:10.538Z,24.4800
2022-08-25T03:04:12.794Z,24.4800
2022-08-25T03:05:15.116Z,24.4900
2022-08-25T03:06:17.277Z,24.4600
2022-08-25T03:07:19.475Z,24.4400
2022-08-25T03:08:21.676Z,24.3900
2022-08-25T03:09:23.919Z,24.4200
2022-08-25T03:10:26.164Z,24.4100
2022-08-25T03:11:28.405Z,24.4300
2022-08-25T03:12:30.678Z,24.4300
2022-08-25T03:13:30.720Z,24.4600
2022-08-25T03:14:32.957Z,24.4400
2022-08-25T03:15:35.189Z,24.4600
2022-08-25T03:16:37.575Z,24.4200
2022-08-25T03:17:39.674Z,24.3900
2022-08-25T03:18:42.110Z,24.3700
2022-08-25T03:19:44.125Z,24.3400
2022-08-25T03:20:46.353Z,24.3600
2022-08-25T03:21:48.563Z,24.3500
2022-08-25T03:22:50.802Z,24.3300
2022-08-25T03:23:53.002Z,24.3400
2022-08-25T03:24:53.080Z,24.3200
2022-08-25T03:25:55.315Z,24.3200
2022-08-25T03:26:57.552Z,24.3100
2022-08-25T03:27:59.884Z,24.2900
2022-08-25T03:29:01.991Z,24.2300
2022-08-25T03:30:04.213Z,24.2500
2022-08-25T03:31:06.450Z,24.2400
2022-08-25T03:32:08.752Z,24.2500
2022-08-25T03:33:10.967Z,24.2700
2022-08-25T03:34:13.160Z,24.2800
2022-08-25T03:35:15.378Z,24.2700
2022-08-25T03:36:17.621Z,24.2800
2022-08-25T03:37:17.706Z,24.2600
2022-08-25T03:38:19.954Z,24.2600
2022-08-25T03:39:22.161Z,24.2000
2022-08-25T03:40:24.430Z,24.2000
2022-08-25T03:41:27.980Z,24.1700
2022-08-25T03:42:28.898Z,24.1600
2022-08-25T03:43:31.225Z,24.1700
2022-08-25T03:44:33.430Z,24.1800
2022-08-25T03:45:35.726Z,24.1700
2022-08-25T03:46:37.896Z,24.1700
2022-08-25T03:47:40.166Z,24.1900
2022-08-25T03:48:42.457Z,24.1700
2022-08-25T03:49:44.654Z,24.1700
2022-08-25T03:50:51.499Z,24.1600
2022-08-25T03:51:49.166Z,24.1300
2022-08-25T03:52:51.413Z,24.1400
2022-08-25T03:53:53.697Z,24.1400
2022-08-25T03:54:55.917Z,24.1500
2022-08-25T03:55:58.162Z,24.1600
2022-08-25T03:56:58.261Z,24.1700
2022-08-25T03:58:00.497Z,24.1600
2022-08-25T03:59:02.783Z,24.1600
2022-08-25T04:00:04.969Z,24.1600
2022-08-25T04:01:07.280Z,24.1400
2022-08-25T04:02:09.499Z,24.1300
2022-08-25T04:03:11.698Z,24.1600
2022-08-25T04:04:13.999Z,24.1800
2022-08-25T04:05:16.246Z,24.1800
2022-08-25T04:06:18.530Z,24.1600
2022-08-25T04:07:18.655Z,24.1600
2022-08-25T04:08:20.910Z,24.1700
2022-08-25T04:09:23.199Z,24.1600
2022-08-25T04:10:25.420Z,24.1500
2022-08-25T04:11:27.709Z,24.1400
2022-08-25T04:12:29.947Z,24.1400
2022-08-25T04:13:32.226Z,24.1600
2022-08-25T04:14:34.479Z,24.1500
2022-08-25T04:15:36.716Z,24.1300
2022-08-25T04:16:36.931Z,24.1200
2022-08-25T04:17:39.103Z,24.1600
2022-08-25T04:18:41.339Z,24.1600
2022-08-25T04:19:43.680Z,24.1500
2022-08-25T04:20:46.902Z,24.1700
2022-08-25T04:21:48.117Z,24.2000
2022-08-25T04:22:50.347Z,24.2300
2022-08-25T04:23:52.566Z,24.2300
2022-08-25T04:24:52.700Z,24.2300
2022-08-25T04:25:54.930Z,24.2200
2022-08-25T04:26:57.194Z,24.2300
2022-08-25T04:27:59.556Z,24.2500
2022-08-25T04:29:01.688Z,24.2600
2022-08-25T04:30:03.971Z,24.2700
2022-08-25T04:31:06.160Z,24.3000
2022-08-25T04:32:08.555Z,24.3400
2022-08-25T04:33:10.636Z,24.3600
2022-08-25T04:34:28.510Z,24.3700
2022-08-25T04:35:15.143Z,24.3600
2022-08-25T04:36:15.200Z,24.3700
2022-08-25T04:37:17.410Z,24.3800
2022-08-25T04:38:19.637Z,24.4200
2022-08-25T04:39:21.902Z,24.4900
2022-08-25T04:40:29.155Z,24.5300
2022-08-25T04:41:26.496Z,24.5200
2022-08-25T04:42:28.784Z,24.5400
2022-08-25T04:43:31.143Z,24.5200
2022-08-25T04:44:31.262Z,24.4800
2022-08-25T04:45:33.629Z,24.4600
2022-08-25T04:46:35.838Z,24.4000
2022-08-25T04:47:38.106Z,24.3600
2022-08-25T04:48:40.369Z,24.3700
2022-08-25T04:49:42.657Z,24.3600
2022-08-25T04:50:44.986Z,24.3600
2022-08-25T04:51:45.120Z,24.3500
2022-08-25T04:52:47.514Z,24.2600
2022-08-25T04:53:49.749Z,24.2700
2022-08-25T04:54:52.041Z,24.2400
2022-08-25T04:55:54.385Z,24.2400
2022-08-25T04:56:58.405Z,24.2400
2022-08-25T04:57:56.770Z,24.2500
2022-08-25T04:58:59.058Z,24.2700
2022-08-25T05:00:01.351Z,24.2400
2022-08-25T05:01:03.790Z,24.2400
2022-08-25T05:02:05.949Z,24.2100
2022-08-25T05:03:08.263Z,24.2000
2022-08-25T05:04:08.461Z,24.2000
2022-08-25T05:05:10.644Z,24.1800
2022-08-25T05:06:16.066Z,24.1700
2022-08-25T05:07:15.141Z,24.1800
2022-08-25T05:08:17.438Z,24.1900
2022-08-25T05:09:19.924Z,24.1400
2022-08-25T05:10:22.046Z,24.1400
2022-08-25T05:11:24.321Z,24.1400
2022-08-25T05:12:24.449Z,24.1700
2022-08-25T05:13:26.740Z,24.1500
2022-08-25T05:14:29.064Z,24.1500
2022-08-25T05:15:31.325Z,24.1200
2022-08-25T05:16:33.699Z,24.1300
2022-08-25T05:17:35.932Z,24.1600
2022-08-25T05:18:38.236Z,24.1800
2022-08-25T05:19:38.360Z,24.1500
2022-08-25T05:20:40.574Z,24.1700
2022-08-25T05:21:42.853Z,24.1600
2022-08-25T05:22:45.071Z,24.1600
2022-08-25T05:23:47.337Z,24.1200
2022-08-25T05:24:49.640Z,23.8400
2022-08-25T05:25:52.005Z,23.5300
2022-08-25T05:26:52.203Z,23.3700
2022-08-25T05:27:54.458Z,23.0800
2022-08-25T05:28:56.768Z,23.1100
2022-08-25T05:29:59.070Z,23.2800
2022-08-25T05:31:01.318Z,23.4100
2022-08-25T05:32:03.742Z,23.5400
2022-08-25T05:33:05.900Z,23.6000
2022-08-25T05:34:06.049Z,23.6600
2022-08-25T05:35:08.327Z,23.7500
2022-08-25T05:36:10.610Z,23.8200
2022-08-25T05:37:12.935Z,23.8600
2022-08-25T05:38:15.599Z,23.9100
2022-08-25T05:39:17.458Z,23.9600
2022-08-25T05:40:19.787Z,23.9600
2022-08-25T05:41:19.843Z,23.9900
2022-08-25T05:42:22.138Z,24.0000
2022-08-25T05:43:24.388Z,24.0000
2022-08-25T05:44:26.648Z,24.0000
2022-08-25T05:45:29.005Z,24.0200
2022-08-25T05:46:31.661Z,24.0600
2022-08-25T05:47:33.724Z,24.0700
2022-08-25T05:48:35.765Z,24.1100
2022-08-25T05:49:35.830Z,24.1200
2022-08-25T05:50:38.103Z,24.1000
2022-08-25T05:51:40.376Z,24.1100
2022-08-25T05:52:42.680Z,24.1200
2022-08-25T05:53:44.872Z,24.1600
2022-08-25T05:54:47.155Z,24.1800
2022-08-25T05:55:49.437Z,24.1900
2022-08-25T05:56:51.668Z,24.1400
2022-08-25T05:57:53.938Z,24.1600
2022-08-25T05:58:54.021Z,24.1600
2022-08-25T05:59:56.314Z,24.1900
2022-08-25T06:00:58.668Z,24.2100
2022-08-25T06:02:00.817Z,24.2100
2022-08-25T06:03:03.088Z,24.1700
2022-08-25T06:04:05.375Z,24.1700
2022-08-25T06:05:07.573Z,24.1600
2022-08-25T06:06:09.835Z,24.1200
2022-08-25T06:07:12.054Z,24.1200
2022-08-25T06:08:12.185Z,24.1600
2022-08-25T06:09:14.419Z,24.1800
2022-08-25T06:10:16.689Z,24.2100
2022-08-25T06:11:18.946Z,24.2000
2022-08-25T06:12:21.226Z,23.9800
2022-08-25T06:13:28.637Z,23.6600
2022-08-25T06:14:25.843Z,23.4600
2022-08-25T06:15:26.018Z,23.2700
2022-08-25T06:16:28.459Z,23.1400
2022-08-25T06:17:30.671Z,23.1400
2022-08-25T06:18:33.024Z,23.3000
2022-08-25T06:19:35.320Z,23.2300
2022-08-25T06:20:37.620Z,23.1400
2022-08-25T06:21:37.808Z,23.0900
2022-08-25T06:22:40.066Z,23.0900
2022-08-25T06:23:42.385Z,22.8800
2022-08-25T06:24:44.702Z,22.7900
2022-08-25T06:25:46.982Z,22.8000
2022-08-25T06:26:49.276Z,22.8600
2022-08-25T06:27:51.619Z,22.8700
2022-08-25T06:28:51.858Z,22.9500
2022-08-25T06:29:56.017Z,22.9000
2022-08-25T06:30:56.418Z,22.9200
2022-08-25T06:31:58.733Z,22.8500
2022-08-25T06:32:58.848Z,22.8400
2022-08-25T06:34:01.198Z,22.8300
2022-08-25T06:35:03.487Z,22.8500
2022-08-25T06:36:05.795Z,22.8800
2022-08-25T06:37:08.107Z,22.9300
2022-08-25T06:38:10.408Z,22.8700
2022-08-25T06:39:12.671Z,22.8900
2022-08-25T06:40:12.886Z,22.8800
2022-08-25T06:41:15.081Z,22.9200
2022-08-25T06:42:17.350Z,22.8500
2022-08-25T06:43:19.642Z,22.8700
2022-08-25T06:44:21.942Z,22.8000
2022-08-25T06:45:24.171Z,22.8600
2022-08-25T06:46:34.678Z,22.8600
2022-08-25T06:47:28.744Z,22.8000
2022-08-25T06:48:28.904Z,22.8400
2022-08-25T06:49:35.552Z,22.8200
2022-08-25T06:50:33.568Z,22.7900
2022-08-25T06:51:36.162Z,22.7800
2022-08-25T06:52:38.218Z,22.8300
2022-08-25T06:53:40.533Z,22.8300
2022-08-25T06:54:40.664Z,22.8100
2022-08-25T06:55:42.942Z,22.8800
2022-08-25T06:56:45.232Z,22.8900
2022-08-25T06:57:47.537Z,22.8800
2022-08-25T06:58:49.843Z,22.8500
2022-08-25T06:59:53.529Z,22.8600
2022-08-25T07:00:54.462Z,22.8400
2022-08-25T07:01:54.627Z,22.7700
2022-08-25T07:02:56.904Z,22.8800
2022-08-25T07:03:59.205Z,22.8300
2022-08-25T07:05:01.551Z,22.7500
2022-08-25T07:06:03.820Z,22.8300
2022-08-25T07:07:06.145Z,22.9400
2022-08-25T07:08:44.989Z,22.9200
2022-08-25T07:09:47.189Z,22.9500
2022-08-25T07:10:48.143Z,23.0300
2022-08-25T07:13:20.841Z,23.1400
2022-08-25T07:14:22.952Z,23.2800
2022-08-25T07:15:25.177Z,23.3500
2022-08-25T07:16:27.974Z,23.4300
2022-08-25T07:17:27.499Z,23.4400
2022-08-25T07:18:29.737Z,23.4900
2022-08-25T07:19:31.947Z,23.4900
2022-08-25T07:20:34.143Z,23.4800
2022-08-25T07:21:36.350Z,23.4900
2022-08-25T07:22:38.518Z,23.4200
2022-08-25T07:23:40.716Z,23.3800
2022-08-25T07:24:42.914Z,23.3900
2022-08-25T07:25:45.107Z,23.4500
2022-08-25T07:26:47.352Z,23.4000
2022-08-25T07:27:49.555Z,23.3900
2022-08-25T07:28:51.793Z,23.4300
2022-08-25T07:29:54.028Z,23.4300
2022-08-25T07:30:54.131Z,23.3800
2022-08-25T07:31:56.458Z,23.3700
2022-08-25T07:32:58.624Z,23.4100
2022-08-25T07:34:00.894Z,23.4300
2022-08-25T07:35:03.176Z,23.4700
2022-08-25T07:36:05.473Z,23.5100
2022-08-25T07:37:07.808Z,23.5100
2022-08-25T07:38:12.585Z,23.4600
2022-08-25T07:39:10.196Z,23.4100
2022-08-25T07:40:12.569Z,23.4500
2022-08-25T07:41:14.726Z,23.4700
2022-08-25T07:42:17.045Z,23.5400
2022-08-25T07:43:19.235Z,23.5500
2022-08-25T07:44:21.463Z,23.5600
2022-08-25T07:45:23.679Z,23.5800
2022-08-25T07:46:25.997Z,23.6300
2022-08-25T07:47:28.246Z,23.7000
2022-08-25T07:48:28.327Z,23.7500
2022-08-25T07:49:36.151Z,23.7200
2022-08-25T07:50:32.892Z,23.7800
2022-08-25T07:51:35.177Z,23.7900
2022-08-25T07:52:38.858Z,23.8400
2022-08-25T07:53:39.899Z,23.8500
2022-08-25T07:54:42.015Z,23.8600
2022-08-25T07:55:42.151Z,23.8000
2022-08-25T07:56:44.437Z,23.7800
2022-08-25T07:57:46.674Z,23.8100
2022-08-25T07:58:48.863Z,23.8000
2022-08-25T07:59:51.207Z,23.8400
2022-08-25T08:00:53.365Z,23.8900
2022-08-25T08:01:55.605Z,23.9400
2022-08-25T08:02:57.878Z,23.9700
2022-08-25T08:04:03.435Z,23.9800
2022-08-25T08:05:02.249Z,24.0100
2022-08-25T08:06:04.503Z,24.0300
2022-08-25T08:07:04.641Z,24.0600
2022-08-25T08:08:07.270Z,24.0700
2022-08-25T08:09:09.234Z,24.0900
2022-08-25T08:10:42.466Z,24.1000
2022-08-25T08:11:13.764Z,24.1100
2022-08-25T08:12:16.068Z,24.1200
2022-08-25T08:13:18.985Z,24.1400
2022-08-25T08:14:18.433Z,24.1500
2022-08-25T08:15:20.643Z,24.1400
2022-08-25T08:16:22.928Z,24.1500
2022-08-25T08:17:25.135Z,24.1500
2022-08-25T08:18:27.643Z,24.1600
2022-08-25T08:19:27.588Z,24.1800
2022-08-25T08:20:29.868Z,24.1600
2022-08-25T08:21:32.160Z,24.1500
2022-08-25T08:22:32.283Z,24.1400
2022-08-25T08:23:34.596Z,24.1400
2022-08-25T08:24:44.841Z,24.1600
2022-08-25T08:25:39.137Z,24.1300
2022-08-25T08:26:57.600Z,24.1500
2022-08-25T08:27:43.677Z,24.1600
2022-08-25T08:28:52.091Z,24.1900
2022-08-25T08:29:48.237Z,24.1800
2022-08-25T08:30:53.764Z,24.2000
2022-08-25T08:31:50.673Z,24.2100
2022-08-25T08:33:09.150Z,24.2300
2022-08-25T08:33:55.398Z,24.2300
2022-08-25T08:34:57.365Z,24.2400
2022-08-25T08:35:59.615Z,24.2500
2022-08-25T08:37:01.818Z,24.2500
2022-08-25T08:38:05.450Z,24.2500
2022-08-25T08:39:06.281Z,24.2700
2022-08-25T08:40:08.535Z,24.2600
2022-08-25T08:41:08.566Z,24.2700
2022-08-25T08:42:12.276Z,24.2800
2022-08-25T08:43:18.591Z,24.2800
2022-08-25T08:44:15.318Z,24.3000
2022-08-25T08:45:17.510Z,24.3300
2022-08-25T08:46:19.798Z,24.3300
2022-08-25T08:47:22.499Z,24.3400
2022-08-25T08:48:24.221Z,24.3300
2022-08-25T08:49:26.798Z,24.3400
2022-08-25T08:50:32.976Z,24.3300
2022-08-25T08:51:32.915Z,24.3200
2022-08-25T08:52:31.056Z,24.3200
2022-08-25T08:53:34.217Z,24.3200
2022-08-25T08:54:36.247Z,24.2900
2022-08-25T08:55:37.747Z,24.3000
2022-08-25T08:56:45.442Z,24.3000
2022-08-25T08:57:42.115Z,24.2800
2022-08-25T08:58:44.288Z,24.3100
2022-08-25T08:59:46.519Z,24.3300
2022-08-25T09:00:46.785Z,24.3000
2022-08-25T09:01:52.609Z,24.3000
2022-08-25T09:02:52.143Z,24.3100
2022-08-25T09:03:55.362Z,24.3300
2022-08-25T09:04:55.407Z,24.3300
2022-08-25T09:05:57.581Z,24.3400
2022-08-25T09:06:59.830Z,24.3600
2022-08-25T09:08:02.069Z,24.3700
2022-08-25T09:09:06.951Z,24.3300
2022-08-25T09:10:06.585Z,24.2500
2022-08-25T09:11:10.054Z,24.1500
2022-08-25T09:12:11.064Z,23.9600
2022-08-25T09:13:12.731Z,23.8700
2022-08-25T09:14:13.383Z,23.8400
2022-08-25T09:15:13.979Z,23.8400
2022-08-25T09:16:20.606Z,23.9300
2022-08-25T09:17:17.858Z,24.0000
2022-08-25T09:18:20.067Z,24.0700
2022-08-25T09:19:23.642Z,24.1000
2022-08-25T09:20:24.568Z,24.1200
2022-08-25T09:21:26.745Z,24.1900
2022-08-25T09:22:35.568Z,24.2100
2022-08-25T09:23:31.120Z,24.2100
2022-08-25T09:24:33.299Z,24.2400
2022-08-25T09:25:52.483Z,24.2800
2022-08-25T09:26:35.518Z,24.2600
2022-08-25T09:27:37.748Z,24.2200
2022-08-25T09:28:39.911Z,24.2000
2022-08-25T09:29:42.121Z,24.2500
2022-08-25T09:30:44.487Z,24.2900
2022-08-25T09:31:46.574Z,24.3400
2022-08-25T09:32:52.508Z,24.3600
2022-08-25T09:33:50.886Z,24.3700
2022-08-25T09:34:53.119Z,24.3900
2022-08-25T09:35:55.221Z,24.4100
2022-08-25T09:36:57.364Z,24.4100
2022-08-25T09:37:59.641Z,24.4400
2022-08-25T09:39:01.739Z,24.4500
2022-08-25T09:40:03.964Z,24.4600
2022-08-25T09:41:06.124Z,24.4500
2022-08-25T09:42:08.282Z,24.4600
2022-08-25T09:43:10.475Z,24.4500
2022-08-25T09:44:10.535Z,24.4600
2022-08-25T09:45:12.789Z,24.4500
2022-08-25T09:46:15.062Z,24.4500
2022-08-25T09:47:17.222Z,24.4600
2022-08-25T09:48:19.432Z,24.4600
2022-08-25T09:49:21.649Z,24.4600
2022-08-25T09:50:23.886Z,24.4700
2022-08-25T09:51:26.087Z,24.4600
2022-08-25T09:52:28.256Z,24.4800
2022-08-25T09:53:33.855Z,24.4800
2022-08-25T09:54:37.727Z,24.4800
2022-08-25T09:55:34.786Z,24.4800
2022-08-25T09:56:34.868Z,24.5000
2022-08-25T09:57:36.967Z,24.5200
2022-08-25T09:58:39.171Z,24.5200
2022-08-25T09:59:41.370Z,24.5200
2022-08-25T10:00:43.559Z,24.5200
2022-08-25T10:01:45.847Z,24.5300
2022-08-25T10:02:48.039Z,24.5400
2022-08-25T10:03:50.259Z,24.5500
2022-08-25T10:04:52.550Z,24.5600
2022-08-25T10:06:34.405Z,24.5500
2022-08-25T10:07:35.594Z,24.5500
2022-08-25T10:08:37.934Z,24.5700
2022-08-25T10:09:39.997Z,24.5700
2022-08-25T10:10:42.238Z,24.5800
2022-08-25T10:11:42.338Z,24.5700
2022-08-25T10:12:44.633Z,24.5800
2022-08-25T10:13:46.762Z,24.5700
2022-08-25T10:14:48.973Z,24.6000
2022-08-25T10:15:51.218Z,24.6000
2022-08-25T10:16:53.346Z,24.6100
2022-08-25T10:17:55.589Z,24.6100
2022-08-25T10:18:57.760Z,24.6200
2022-08-25T10:19:59.980Z,24.6300
2022-08-25T10:21:02.156Z,24.6200
2022-08-25T10:22:04.335Z,24.6400
2022-08-25T10:23:06.830Z,24.6900
2022-08-25T10:24:08.793Z,24.7100
2022-08-25T10:25:11.061Z,24.7300
2022-08-25T10:26:13.325Z,24.7300
2022-08-25T10:27:13.470Z,24.7100
2022-08-25T10:28:15.734Z,24.7100
2022-08-25T10:29:17.941Z,24.7000
2022-08-25T10:30:20.208Z,24.6900
2022-08-25T10:31:22.486Z,24.6800
2022-08-25T10:32:24.675Z,24.6800
2022-08-25T10:33:26.959Z,24.6900
2022-08-25T10:34:29.126Z,24.6900
2022-08-25T10:35:31.330Z,24.7000
2022-08-25T10:36:33.547Z,24.7000
2022-08-25T10:37:35.715Z,24.7000
2022-08-25T10:38:37.974Z,24.7100
2022-08-25T10:39:40.606Z,24.7200
2022-08-25T10:40:40.285Z,24.7200
2022-08-25T10:41:42.454Z,24.7300
2022-08-25T10:42:44.591Z,24.7400
2022-08-25T10:43:46.775Z,24.7500
2022-08-25T10:44:48.949Z,24.7500
2022-08-25T10:45:51.260Z,24.7600
2022-08-25T10:46:53.381Z,24.7700
2022-08-25T10:47:55.592Z,24.7700
2022-08-25T10:48:57.830Z,24.7800
2022-08-25T10:49:59.972Z,24.7900
2022-08-25T10:51:02.150Z,24.7900
2022-08-25T10:52:04.374Z,24.8000
2022-08-25T10:53:06.840Z,24.8100
2022-08-25T10:54:08.835Z,24.8100
2022-08-25T10:55:08.849Z,24.8200
2022-08-25T10:56:11.069Z,24.8200
2022-08-25T10:57:13.299Z,24.8400
2022-08-25T10:58:15.516Z,24.8400
2022-08-25T10:59:17.772Z,24.8500
2022-08-25T11:00:19.994Z,24.8500
2022-08-25T11:01:28.821Z,24.8600
2022-08-25T11:02:24.476Z,24.8400
2022-08-25T11:03:26.895Z,24.8500
2022-08-25T11:04:28.991Z,24.8600
2022-08-25T11:05:31.237Z,24.8700
2022-08-25T11:06:31.279Z,24.8700
2022-08-25T11:07:33.504Z,24.8800
2022-08-25T11:08:35.751Z,24.8900
2022-08-25T11:09:37.970Z,24.8900
2022-08-25T11:10:40.138Z,24.8800
2022-08-25T11:11:42.375Z,24.9000
2022-08-25T11:12:44.614Z,24.9100
2022-08-25T11:13:46.813Z,24.9100
2022-08-25T11:14:49.080Z,24.9000
2022-08-25T11:16:13.720Z,24.9100
2022-08-25T11:16:53.526Z,24.8900
2022-08-25T11:17:55.699Z,24.9100
2022-08-25T11:18:57.912Z,24.9300
2022-08-25T11:19:57.989Z,24.9400
2022-08-25T11:21:00.203Z,24.9500
2022-08-25T11:22:02.391Z,24.9700
2022-08-25T11:23:04.742Z,24.9800
2022-08-25T11:24:06.820Z,24.9900
2022-08-25T11:25:09.058Z,25.0000
2022-08-25T11:26:11.247Z,25.0100
2022-08-25T11:27:13.866Z,25.0200
2022-08-25T11:28:15.684Z,25.0200
2022-08-25T11:29:17.898Z,25.0200
2022-08-25T11:30:20.132Z,25.0300
2022-08-25T11:31:22.300Z,25.0200
2022-08-25T11:32:24.456Z,25.0400
2022-08-25T11:33:26.669Z,25.0300
2022-08-25T11:34:28.885Z,25.0300
2022-08-25T11:35:29.012Z,25.0400
2022-08-25T11:36:31.226Z,25.0400
2022-08-25T11:37:33.442Z,25.0500
2022-08-25T11:38:35.668Z,25.0600
2022-08-25T11:39:37.906Z,25.0700
2022-08-25T11:40:40.153Z,25.0600
2022-08-25T11:41:42.320Z,25.0700
2022-08-25T11:42:44.539Z,25.0800
2022-08-25T11:43:46.772Z,25.0600
2022-08-25T11:44:53.032Z,25.0700
2022-08-25T11:45:54.392Z,25.0600
2022-08-25T11:46:53.333Z,25.0800
2022-08-25T11:47:55.475Z,25.1000
2022-08-25T11:48:57.616Z,25.1100
2022-08-25T11:49:59.750Z,25.1200
2022-08-25T11:51:01.979Z,25.1400
2022-08-25T11:52:04.191Z,25.1500
2022-08-25T11:53:04.323Z,25.1600
2022-08-25T11:54:06.570Z,25.1400
2022-08-25T11:55:09.725Z,25.1500
2022-08-25T11:56:10.946Z,25.1600
2022-08-25T11:57:13.153Z,25.1700
2022-08-25T11:58:15.407Z,25.1800
2022-08-25T11:59:17.679Z,25.1800
2022-08-25T12:00:19.832Z,25.1900
2022-08-25T12:01:22.115Z,25.1900
2022-08-25T12:02:24.308Z,25.2000
2022-08-25T12:03:26.591Z,25.2000
2022-08-25T12:04:28.985Z,25.2100
2022-08-25T12:05:28.989Z,25.2100
2022-08-25T12:06:31.206Z,25.2200
2022-08-25T12:07:33.487Z,25.2200
2022-08-25T12:08:35.771Z,25.2400
2022-08-25T12:09:38.056Z,25.2500
2022-08-25T12:10:40.347Z,25.2500
2022-08-25T12:11:42.655Z,25.2700
2022-08-25T12:12:44.846Z,25.2800
2022-08-25T12:13:44.932Z,25.2800
2022-08-25T12:14:47.207Z,25.2900
2022-08-25T12:15:49.724Z,25.3000
2022-08-25T12:16:51.819Z,25.2900
2022-08-25T12:18:32.650Z,25.2600
2022-08-25T12:19:34.783Z,25.2900
2022-08-25T12:20:35.854Z,25.3000
2022-08-25T12:20:36.988Z,25.3000
2022-08-25T12:22:37.089Z,25.3100
2022-08-25T12:23:39.889Z,25.3200
2022-08-25T12:24:39.266Z,25.3200
2022-08-25T12:25:43.473Z,25.3200
2022-08-25T12:26:46.165Z,25.3400
2022-08-25T12:27:45.802Z,25.3300
2022-08-25T12:28:37.288Z,25.3500
2022-08-25T12:29:39.471Z,25.3600
2022-08-25T12:30:41.744Z,25.3800
2022-08-25T12:31:43.849Z,25.3800
2022-08-25T12:32:46.036Z,25.3700
2022-08-25T12:33:48.261Z,25.3900